This is the latest recevied weather packets stored in our database for station/object AB2HM. If no packets are shown the sender has not sent any weather packets the latest 10 day(s).
| Time | Temp. | Humidity | Pressure | Rain* | Wind** | Luminosity | Snow |
|---|---|---|---|---|---|---|---|
| 1777573292 | 18.89° C | 57% | 1008.3 hPa | 0 mm | - | - | - |
| 1777571491 | 18.89° C | 59% | 1008.3 hPa | 0 mm | - | - | - |
| 1777569688 | 17.78° C | 64% | 1008.4 hPa | 0 mm | - | - | - |
| 1777567883 | 16.67° C | 71% | 1008.5 hPa | 0 mm | - | - | - |
| 1777566082 | 16.11° C | 73% | 1008.5 hPa | 0 mm | - | - | - |
| 1777564275 | 15° C | 79% | 1008.6 hPa | 0 mm | - | - | - |
| 1777562473 | 15° C | 82% | 1009 hPa | 0 mm | - | - | - |
| 1777560669 | 14.44° C | 87% | 1009.3 hPa | 0 mm | - | - | - |
| 1777558865 | 13.33° C | 92% | 1009.2 hPa | 0 mm | - | - | - |
| 1777555259 | 12.22° C | 94% | 1008.3 hPa | 0 mm | - | - | - |
| 1777553455 | 11.67° C | 95% | 1008.4 hPa | 0 mm | - | - | - |
| 1777551655 | 11.11° C | 95% | 1008.6 hPa | 0 mm | - | - | - |
| 1777549849 | 11.11° C | 95% | 1008.5 hPa | 0 mm | - | - | - |
| 1777548046 | 11.11° C | 95% | 1008.6 hPa | 0 mm | - | - | - |
| 1777546244 | 10.56° C | 95% | 1008.5 hPa | 0 mm | - | - | - |
| 1777544443 | 10.56° C | 95% | 1008.4 hPa | 0 mm | - | - | - |
| 1777542641 | 10.56° C | 95% | 1008.2 hPa | 0 mm | - | - | - |
| 1777540819 | 10.56° C | 95% | 1008 hPa | 0 mm | - | - | - |
| 1777539003 | 10.56° C | 95% | 1008 hPa | 0 mm | - | - | - |
| 1777537205 | 10.56° C | 95% | 1007.9 hPa | 0 mm | - | - | - |
| 1777535391 | 10.56° C | 94% | 1008.1 hPa | 0 mm | - | - | - |
| 1777533582 | 10.56° C | 94% | 1008.3 hPa | 0.51 mm | - | - | - |
| 1777531782 | 10.56° C | 94% | 1008.7 hPa | 1.27 mm | - | - | - |
| 1777529978 | 10.56° C | 94% | 1009 hPa | 1.52 mm | - | - | - |
| 1777528178 | 10.56° C | 93% | 1009.2 hPa | 1.78 mm | - | - | - |
* Rain latest hour (hover to see other rain measurements)
** Current wind speed in m/s (hover to see current wind gust speed)